createdAt,value
2024-03-16T00:04:55.873Z,14.89
2024-03-16T00:21:34.669Z,14.78
2024-03-16T00:27:01.490Z,14.76
2024-03-16T00:32:21.750Z,14.70
2024-03-16T00:37:26.812Z,14.71
2024-03-16T00:42:29.221Z,14.66
2024-03-16T00:47:37.027Z,14.61
2024-03-16T00:52:47.440Z,14.56
2024-03-16T00:57:56.579Z,14.54
2024-03-16T01:03:12.241Z,14.51
2024-03-16T01:08:29.786Z,14.49
2024-03-16T01:13:32.787Z,14.47
2024-03-16T01:19:05.187Z,14.45
2024-03-16T01:24:16.903Z,14.45
2024-03-16T01:29:27.882Z,14.42
2024-03-16T01:34:32.241Z,14.42
2024-03-16T01:39:47.329Z,14.42
2024-03-16T01:50:43.183Z,14.33
2024-03-16T01:55:51.424Z,14.27
2024-03-16T02:05:38.881Z,14.13
2024-03-16T02:10:58.105Z,14.09
2024-03-16T02:16:04.149Z,14.07
2024-03-16T02:21:20.656Z,14.03
2024-03-16T02:26:26.157Z,13.94
2024-03-16T02:31:43.883Z,13.88
2024-03-16T02:36:53.680Z,13.82
2024-03-16T02:42:04.375Z,13.77
2024-03-16T02:47:10.156Z,13.76
2024-03-16T02:52:14.282Z,13.71
2024-03-16T02:57:27.256Z,13.70
2024-03-16T03:02:45.006Z,13.67
2024-03-16T03:07:51.063Z,13.66
2024-03-16T03:13:03.403Z,13.63
2024-03-16T03:23:41.236Z,13.60
2024-03-16T03:29:27.871Z,13.57
2024-03-16T03:34:34.233Z,13.54
2024-03-16T03:45:53.592Z,13.48
2024-03-16T03:51:02.463Z,13.48
2024-03-16T03:56:12.848Z,13.49
2024-03-16T04:01:15.415Z,13.48
2024-03-16T04:06:50.855Z,13.49
2024-03-16T04:11:53.189Z,13.48
2024-03-16T04:16:58.434Z,13.48
2024-03-16T04:22:13.619Z,13.48
2024-03-16T04:27:21.711Z,13.46
2024-03-16T04:32:29.696Z,13.44
2024-03-16T04:37:40.585Z,13.41
2024-03-16T04:42:47.154Z,13.39
2024-03-16T04:48:06.120Z,13.41
2024-03-16T04:53:25.729Z,13.41
2024-03-16T04:58:31.536Z,13.40
2024-03-16T05:03:34.141Z,13.38
2024-03-16T05:08:37.214Z,13.37
2024-03-16T05:13:43.761Z,13.38
2024-03-16T05:18:46.141Z,13.35
2024-03-16T05:23:48.656Z,13.30
2024-03-16T05:28:51.222Z,13.26
2024-03-16T05:33:53.557Z,13.22
2024-03-16T05:38:55.621Z,13.18
2024-03-16T05:43:57.859Z,13.17
2024-03-16T05:49:00.300Z,13.15
2024-03-16T05:54:05.360Z,13.15
2024-03-16T05:59:19.728Z,13.15
2024-03-16T06:04:30.337Z,13.12
2024-03-16T06:09:41.186Z,13.10
2024-03-16T06:14:45.708Z,13.08
2024-03-16T06:19:51.274Z,13.08
2024-03-16T06:24:53.921Z,13.10
2024-03-16T06:29:57.733Z,13.13
2024-03-16T06:34:59.925Z,13.16
2024-03-16T06:40:01.959Z,13.20
2024-03-16T06:45:05.979Z,13.29
2024-03-16T06:50:14.477Z,13.36
2024-03-16T06:55:24.504Z,13.47
2024-03-16T07:00:29.574Z,13.54
2024-03-16T07:05:34.131Z,13.65
2024-03-16T07:10:36.712Z,13.80
2024-03-16T07:15:40.697Z,14.00
2024-03-16T07:20:43.323Z,14.30
2024-03-16T07:25:50.905Z,14.63
2024-03-16T07:30:59.316Z,15.22
2024-03-16T07:36:02.308Z,15.83
2024-03-16T07:41:07.898Z,16.33
2024-03-16T07:46:10.189Z,16.48
2024-03-16T07:51:15.297Z,16.63
2024-03-16T07:56:19.787Z,16.89
2024-03-16T08:01:24.812Z,17.22
2024-03-16T08:06:27.372Z,17.40
2024-03-16T08:11:34.532Z,17.68
2024-03-16T08:16:39.910Z,17.91
2024-03-16T08:21:42.229Z,18.18
2024-03-16T08:26:44.974Z,18.51
2024-03-16T08:31:49.439Z,18.87
2024-03-16T08:36:57.013Z,19.20
2024-03-16T08:42:01.236Z,19.48
2024-03-16T08:47:03.460Z,19.73
2024-03-16T08:52:05.895Z,20.00
2024-03-16T08:57:14.398Z,20.21
2024-03-16T09:02:22.519Z,20.13
2024-03-16T09:07:25.145Z,20.33
2024-03-16T09:12:30.305Z,20.36
2024-03-16T09:17:34.189Z,20.41
2024-03-16T09:22:39.131Z,20.55
2024-03-16T09:27:44.781Z,20.72
2024-03-16T09:32:47.129Z,20.94
2024-03-16T09:37:49.495Z,21.11
